createdAt,value
2023-04-11T00:00:15.481Z,11.58
2023-04-11T00:02:43.025Z,11.62
2023-04-11T00:05:10.770Z,11.60
2023-04-11T00:07:38.158Z,11.59
2023-04-11T00:10:07.316Z,11.51
2023-04-11T00:12:34.672Z,11.58
2023-04-11T00:15:02.542Z,11.60
2023-04-11T00:17:31.683Z,11.69
2023-04-11T00:20:01.827Z,11.68
2023-04-11T00:22:30.702Z,11.62
2023-04-11T00:24:58.088Z,11.54
2023-04-11T00:27:25.108Z,11.59
2023-04-11T00:29:53.028Z,11.48
2023-04-11T00:32:21.464Z,11.52
2023-04-11T00:34:48.813Z,11.59
2023-04-11T00:37:17.847Z,11.52
2023-04-11T00:39:45.341Z,11.62
2023-04-11T00:42:12.768Z,11.52
2023-04-11T00:44:40.419Z,11.45
2023-04-11T00:47:09.131Z,11.45
2023-04-11T00:49:37.087Z,11.48
2023-04-11T00:52:05.124Z,11.40
2023-04-11T00:54:32.800Z,11.37
2023-04-11T00:57:04.465Z,11.40
2023-04-11T00:59:33.192Z,11.36
2023-04-11T01:02:01.828Z,11.20
2023-04-11T01:04:32.911Z,11.12
2023-04-11T01:07:06.373Z,11.16
2023-04-11T01:09:35.500Z,11.04
2023-04-11T01:12:04.056Z,10.89
2023-04-11T01:14:31.186Z,10.99
2023-04-11T01:17:02.131Z,10.89
2023-04-11T01:19:30.024Z,10.95
2023-04-11T01:21:58.635Z,10.75
2023-04-11T01:24:26.040Z,10.69
2023-04-11T01:26:53.530Z,10.69
2023-04-11T01:29:20.737Z,10.65
2023-04-11T01:31:48.129Z,10.73
2023-04-11T01:34:17.176Z,10.67
2023-04-11T01:36:44.869Z,10.64
2023-04-11T01:39:12.339Z,10.70
2023-04-11T01:41:41.949Z,10.77
2023-04-11T01:44:09.232Z,10.74
2023-04-11T01:46:36.807Z,10.72
2023-04-11T01:49:04.001Z,10.69
2023-04-11T01:51:31.037Z,10.54
2023-04-11T01:53:58.414Z,10.53
2023-04-11T01:56:25.488Z,10.66
2023-04-11T01:58:52.611Z,10.69
2023-04-11T02:01:20.724Z,10.77
2023-04-11T02:03:48.214Z,10.72
2023-04-11T02:06:16.860Z,10.54
2023-04-11T02:08:44.593Z,10.57
2023-04-11T02:11:12.035Z,10.71
2023-04-11T02:13:39.403Z,10.72
2023-04-11T02:16:18.348Z,10.45
2023-04-11T02:18:46.390Z,10.49
2023-04-11T02:21:13.477Z,10.35
2023-04-11T02:23:40.529Z,10.31
2023-04-11T02:26:07.923Z,10.30
2023-04-11T02:28:36.808Z,10.33
2023-04-11T02:31:04.050Z,10.37
2023-04-11T02:33:31.260Z,10.33
2023-04-11T02:35:58.544Z,10.34
2023-04-11T02:38:25.807Z,10.33
2023-04-11T02:40:52.831Z,10.31
2023-04-11T02:43:20.209Z,10.29
2023-04-11T02:45:47.232Z,10.23
2023-04-11T02:48:14.636Z,10.24
2023-04-11T02:50:42.037Z,10.17
2023-04-11T02:53:09.094Z,10.18
2023-04-11T02:55:36.227Z,10.11
2023-04-11T02:58:03.302Z,9.99
2023-04-11T03:00:30.253Z,9.99
2023-04-11T03:02:59.174Z,9.99
2023-04-11T03:05:26.713Z,9.99
2023-04-11T03:07:54.263Z,9.94
2023-04-11T03:10:22.042Z,9.93
2023-04-11T03:12:49.685Z,9.89
2023-04-11T03:15:17.926Z,9.91
2023-04-11T03:17:45.894Z,9.93
2023-04-11T03:20:14.086Z,9.90
2023-04-11T03:22:41.813Z,9.85
2023-04-11T03:25:09.526Z,9.83
2023-04-11T03:27:37.128Z,9.83
2023-04-11T03:30:05.231Z,9.81
2023-04-11T03:32:32.596Z,9.72
2023-04-11T03:35:01.983Z,9.66
2023-04-11T03:37:28.913Z,9.64
2023-04-11T03:39:55.929Z,9.67
2023-04-11T03:42:23.311Z,9.60
2023-04-11T03:44:50.926Z,9.62
2023-04-11T03:47:18.579Z,9.55
2023-04-11T03:49:46.238Z,9.54
2023-04-11T03:52:15.304Z,9.54
2023-04-11T03:54:42.645Z,9.56
2023-04-11T03:57:10.841Z,9.58
2023-04-11T03:59:38.204Z,9.62
2023-04-11T04:02:06.291Z,9.57
2023-04-11T04:04:33.871Z,9.63
2023-04-11T04:07:01.977Z,9.66
2023-04-11T04:09:29.499Z,9.50
2023-04-11T04:11:57.728Z,9.46
2023-04-11T04:14:24.876Z,9.47
2023-04-11T04:16:52.006Z,9.58
2023-04-11T04:19:19.091Z,9.63
2023-04-11T04:21:46.999Z,9.59
2023-04-11T04:24:14.284Z,9.56
2023-04-11T04:26:41.384Z,9.29
2023-04-11T04:29:10.323Z,9.24
2023-04-11T04:31:38.364Z,9.19
2023-04-11T04:34:10.715Z,9.19
2023-04-11T04:36:49.403Z,9.22
2023-04-11T04:39:20.447Z,9.28
2023-04-11T04:41:49.126Z,9.37
2023-04-11T04:44:16.642Z,9.32
2023-04-11T04:46:44.373Z,9.22
2023-04-11T04:49:11.371Z,9.12
2023-04-11T04:51:40.496Z,9.35
2023-04-11T04:54:07.555Z,9.47
2023-04-11T04:56:34.661Z,9.41
2023-04-11T04:59:01.756Z,9.38
2023-04-11T05:01:28.820Z,9.38
2023-04-11T05:04:00.031Z,9.46
2023-04-11T05:06:32.032Z,9.43
2023-04-11T05:09:01.574Z,9.47
2023-04-11T05:11:29.528Z,9.42
2023-04-11T05:16:42.303Z,9.37
2023-04-11T05:19:09.919Z,9.34
2023-04-11T05:21:38.623Z,9.35
2023-04-11T05:24:06.002Z,9.28
2023-04-11T05:26:33.103Z,9.20
2023-04-11T05:29:01.413Z,9.35
2023-04-11T05:31:31.776Z,9.32
2023-04-11T05:33:59.062Z,9.28
2023-04-11T05:36:26.376Z,9.27
2023-04-11T05:38:53.454Z,9.28
2023-04-11T05:41:20.467Z,9.36
2023-04-11T05:43:47.457Z,9.33
2023-04-11T05:46:14.582Z,9.22
2023-04-11T05:48:41.706Z,9.24
2023-04-11T05:51:08.896Z,9.22
2023-04-11T05:53:36.978Z,9.22
2023-04-11T05:56:04.486Z,9.21
2023-04-11T05:58:31.612Z,9.22
2023-04-11T06:00:59.989Z,9.14
2023-04-11T06:03:27.533Z,9.17
2023-04-11T06:05:55.201Z,9.14
2023-04-11T06:08:22.424Z,9.11
2023-04-11T06:10:49.721Z,9.16
2023-04-11T06:13:16.762Z,9.16
2023-04-11T06:15:44.202Z,9.17
2023-04-11T06:18:12.648Z,9.21
2023-04-11T06:20:39.601Z,9.19
2023-04-11T06:23:06.646Z,9.20
2023-04-11T06:25:33.722Z,9.25
2023-04-11T06:28:00.802Z,9.23
2023-04-11T06:30:28.353Z,9.26
2023-04-11T06:32:57.074Z,9.30
2023-04-11T06:35:27.269Z,9.28
2023-04-11T06:37:54.288Z,9.33
2023-04-11T06:40:21.298Z,9.34
2023-04-11T06:42:48.602Z,9.39
2023-04-11T06:45:15.740Z,9.43
2023-04-11T06:47:42.706Z,9.52
2023-04-11T06:50:10.864Z,9.55
2023-04-11T06:52:38.095Z,9.52
2023-04-11T06:55:07.342Z,9.46
2023-04-11T06:57:34.523Z,9.43
2023-04-11T07:00:02.152Z,9.48
2023-04-11T07:02:29.909Z,9.49
2023-04-11T07:04:57.036Z,9.55
2023-04-11T07:07:24.232Z,9.55
2023-04-11T07:09:51.307Z,9.54
2023-04-11T07:12:18.390Z,9.53
2023-04-11T07:14:45.785Z,9.62
2023-04-11T07:17:12.732Z,9.67
2023-04-11T07:19:39.724Z,9.67
2023-04-11T07:22:06.680Z,9.71
2023-04-11T07:24:33.672Z,9.71
2023-04-11T07:27:02.014Z,9.79
2023-04-11T07:29:29.210Z,9.78
2023-04-11T07:31:56.233Z,9.77
2023-04-11T07:34:23.200Z,9.85
2023-04-11T07:36:50.272Z,9.87
2023-04-11T07:39:17.362Z,9.82
2023-04-11T07:41:44.976Z,9.87
2023-04-11T07:44:11.976Z,9.90
2023-04-11T07:46:40.381Z,9.91
2023-04-11T07:49:07.838Z,9.87
2023-04-11T07:51:35.448Z,9.98
2023-04-11T07:54:02.517Z,10.35
2023-04-11T07:56:29.596Z,10.37
2023-04-11T07:58:58.583Z,10.34
2023-04-11T08:01:27.034Z,10.66
2023-04-11T08:03:56.036Z,10.55
2023-04-11T08:06:23.645Z,11.06
2023-04-11T08:08:51.403Z,10.79
2023-04-11T08:11:18.404Z,11.10
2023-04-11T08:13:45.443Z,11.10
2023-04-11T08:16:15.250Z,11.32
2023-04-11T08:18:42.806Z,11.15
2023-04-11T08:21:12.642Z,10.83
2023-04-11T08:23:42.301Z,10.83
2023-04-11T08:26:09.974Z,11.16
2023-04-11T08:28:37.036Z,11.23
2023-04-11T08:31:05.717Z,11.21
2023-04-11T08:33:33.485Z,11.17
2023-04-11T08:36:00.638Z,11.19
2023-04-11T08:38:27.873Z,11.16
2023-04-11T08:40:55.392Z,11.21
2023-04-11T08:43:22.807Z,11.27
2023-04-11T08:45:49.982Z,11.31
2023-04-11T08:48:17.075Z,11.38
2023-04-11T08:50:44.929Z,11.53
2023-04-11T08:53:12.425Z,11.85
2023-04-11T08:55:48.893Z,11.79
2023-04-11T08:58:16.268Z,11.95
2023-04-11T09:00:44.199Z,12.39
2023-04-11T09:03:15.249Z,12.04
2023-04-11T09:05:47.103Z,11.92
2023-04-11T09:08:16.625Z,11.62
2023-04-11T09:10:45.667Z,11.46
2023-04-11T09:13:25.365Z,11.37
2023-04-11T09:16:07.620Z,11.34
2023-04-11T09:18:37.550Z,12.11
2023-04-11T09:21:08.265Z,12.18
2023-04-11T09:23:36.450Z,12.55
2023-04-11T09:26:07.047Z,12.77
2023-04-11T09:28:50.739Z,12.87
2023-04-11T09:31:17.701Z,13.31
2023-04-11T09:33:56.534Z,13.19
2023-04-11T09:36:27.298Z,13.02
2023-04-11T09:38:54.484Z,12.52
2023-04-11T09:41:33.970Z,12.77
2023-04-11T09:44:01.973Z,13.01
2023-04-11T09:46:29.266Z,13.06
2023-04-11T09:48:57.017Z,13.26
2023-04-11T09:53:56.225Z,13.50
2023-04-11T09:56:26.810Z,13.32
2023-04-11T09:58:57.614Z,13.53
2023-04-11T10:01:25.572Z,13.40
2023-04-11T10:03:54.276Z,13.94
2023-04-11T10:06:41.782Z,13.99
2023-04-11T10:09:13.517Z,14.01
2023-04-11T10:11:45.071Z,14.16
2023-04-11T10:14:37.376Z,14.94
2023-04-11T10:17:23.925Z,14.15
2023-04-11T10:20:00.868Z,13.98
2023-04-11T10:22:49.193Z,13.47
2023-04-11T10:25:18.622Z,13.56
2023-04-11T10:28:01.405Z,14.14
2023-04-11T10:31:14.040Z,14.39
2023-04-11T10:34:21.775Z,14.59
2023-04-11T10:37:08.308Z,14.15
2023-04-11T10:39:53.452Z,14.60
2023-04-11T10:42:49.257Z,14.16
2023-04-11T10:45:33.377Z,13.70
2023-04-11T10:48:13.038Z,13.65
2023-04-11T10:50:45.091Z,13.59
2023-04-11T10:53:37.093Z,13.60
2023-04-11T10:56:07.574Z,13.74
2023-04-11T10:58:37.945Z,13.76
2023-04-11T11:01:31.242Z,13.55
2023-04-11T11:04:04.975Z,13.66
2023-04-11T11:06:40.122Z,13.24
2023-04-11T11:09:23.735Z,14.06
2023-04-11T11:12:15.414Z,13.87
2023-04-11T11:14:47.472Z,14.74
2023-04-11T11:17:16.568Z,14.61
2023-04-11T11:19:45.166Z,14.54
2023-04-11T11:22:25.784Z,14.83
2023-04-11T11:24:53.378Z,14.83
2023-04-11T11:27:25.575Z,14.56
2023-04-11T11:29:53.270Z,14.51
2023-04-11T11:32:28.519Z,14.02
2023-04-11T11:34:57.924Z,14.13
2023-04-11T11:37:25.441Z,13.90
2023-04-11T11:39:53.033Z,14.21
2023-04-11T11:42:20.602Z,14.59
2023-04-11T11:44:48.026Z,13.82
2023-04-11T11:47:15.837Z,13.91
2023-04-11T11:49:55.620Z,14.21
2023-04-11T11:52:40.672Z,14.31
2023-04-11T11:55:19.984Z,14.53
2023-04-11T11:57:49.080Z,14.79
2023-04-11T12:00:26.043Z,15.15
2023-04-11T12:02:55.293Z,14.51
2023-04-11T12:05:25.430Z,15.50
2023-04-11T12:07:58.601Z,15.07
2023-04-11T12:10:42.351Z,14.90
2023-04-11T12:13:41.974Z,15.68
2023-04-11T12:16:09.494Z,15.33
2023-04-11T12:18:42.166Z,15.78
2023-04-11T12:21:09.608Z,15.48
2023-04-11T12:23:37.007Z,15.54
2023-04-11T12:26:04.454Z,15.72
2023-04-11T12:28:32.743Z,15.96
2023-04-11T12:31:00.177Z,15.94
2023-04-11T12:33:27.593Z,15.88
2023-04-11T12:35:55.011Z,16.02
2023-04-11T12:38:22.756Z,15.41
2023-04-11T12:43:21.297Z,15.10
2023-04-11T12:45:48.662Z,15.90
2023-04-11T12:48:16.143Z,15.44
2023-04-11T12:50:43.526Z,15.73
2023-04-11T12:53:10.998Z,15.63
2023-04-11T12:55:38.642Z,16.27
2023-04-11T12:58:08.112Z,16.30
2023-04-11T13:00:35.759Z,15.43
2023-04-11T13:03:04.665Z,15.10
2023-04-11T13:05:32.638Z,15.52
2023-04-11T13:07:59.959Z,15.21
2023-04-11T13:10:27.266Z,15.53
2023-04-11T13:12:58.685Z,15.77
2023-04-11T13:15:28.004Z,15.75
2023-04-11T13:17:55.402Z,16.36
2023-04-11T13:20:22.944Z,16.26
2023-04-11T13:22:50.560Z,16.18
2023-04-11T13:25:18.297Z,16.16
2023-04-11T13:27:45.647Z,16.43
2023-04-11T13:30:13.531Z,15.57
2023-04-11T13:32:41.200Z,15.19
2023-04-11T13:35:08.942Z,16.08
2023-04-11T13:37:36.402Z,16.62
2023-04-11T13:40:06.862Z,16.33
2023-04-11T13:42:34.556Z,16.51
2023-04-11T13:45:01.676Z,16.77
2023-04-11T13:47:29.258Z,16.75
2023-04-11T13:49:56.679Z,17.08
2023-04-11T13:52:24.108Z,17.10
2023-04-11T13:54:51.728Z,15.91
2023-04-11T13:57:19.195Z,15.31
2023-04-11T13:59:46.573Z,16.52
2023-04-11T14:02:13.981Z,16.50
2023-04-11T14:04:42.004Z,17.28
2023-04-11T14:07:09.524Z,16.60
2023-04-11T14:09:37.031Z,16.99
2023-04-11T14:12:04.467Z,16.94
2023-04-11T14:14:32.037Z,16.82
2023-04-11T14:16:59.579Z,16.74
2023-04-11T14:19:27.004Z,16.50
2023-04-11T14:21:54.470Z,16.52
2023-04-11T14:24:22.486Z,16.10
2023-04-11T14:26:50.461Z,16.78
2023-04-11T14:29:19.424Z,16.56
2023-04-11T14:31:47.849Z,16.78
2023-04-11T14:34:15.505Z,16.47
2023-04-11T14:36:42.948Z,17.13
2023-04-11T14:39:10.570Z,16.74
2023-04-11T14:41:38.006Z,17.30
2023-04-11T14:44:05.761Z,17.07
2023-04-11T14:46:33.744Z,16.34
2023-04-11T14:49:02.047Z,16.13
2023-04-11T14:51:29.844Z,15.97
2023-04-11T14:53:57.553Z,16.40
2023-04-11T14:56:26.547Z,16.64
2023-04-11T14:58:54.902Z,16.28
2023-04-11T15:01:22.787Z,16.21
2023-04-11T15:03:50.783Z,16.62
2023-04-11T15:06:18.474Z,16.25
2023-04-11T15:08:45.917Z,15.74
2023-04-11T15:11:13.441Z,15.66
2023-04-11T15:13:40.883Z,15.63
2023-04-11T15:16:08.576Z,15.46
2023-04-11T15:18:36.175Z,15.41
2023-04-11T15:21:03.770Z,15.56
2023-04-11T15:23:31.716Z,15.39
2023-04-11T15:26:00.853Z,15.72
2023-04-11T15:28:33.306Z,16.18
2023-04-11T15:31:01.682Z,15.84
2023-04-11T15:33:31.305Z,16.42
2023-04-11T15:36:00.785Z,16.18
2023-04-11T15:38:29.119Z,16.56
2023-04-11T15:40:59.478Z,16.09
2023-04-11T15:43:27.436Z,15.82
2023-04-11T15:45:55.070Z,16.09
2023-04-11T15:48:22.547Z,16.16
2023-04-11T15:50:51.010Z,15.71
2023-04-11T15:53:18.454Z,15.34
2023-04-11T15:55:47.469Z,15.22
2023-04-11T15:58:15.076Z,15.36
2023-04-11T16:00:43.975Z,15.47
2023-04-11T16:03:11.376Z,15.47
2023-04-11T16:05:42.861Z,15.54
2023-04-11T16:08:11.038Z,15.80
2023-04-11T16:10:38.459Z,15.60
2023-04-11T16:13:05.919Z,15.30
2023-04-11T16:15:33.321Z,15.27
2023-04-11T16:18:00.910Z,15.13
2023-04-11T16:20:28.333Z,15.24
2023-04-11T16:22:55.996Z,14.86
2023-04-11T16:25:23.473Z,14.73
2023-04-11T16:27:51.557Z,14.76
2023-04-11T16:30:19.182Z,14.57
2023-04-11T16:32:46.998Z,14.54
2023-04-11T16:35:14.020Z,14.43
2023-04-11T16:37:41.387Z,14.25
2023-04-11T16:40:12.469Z,14.48
2023-04-11T16:42:40.541Z,14.20
2023-04-11T16:45:09.866Z,14.25
2023-04-11T16:47:38.080Z,14.17
2023-04-11T16:50:06.012Z,14.13
2023-04-11T16:52:33.898Z,14.14
2023-04-11T16:55:03.177Z,14.02
2023-04-11T16:57:33.786Z,14.06
2023-04-11T17:00:11.732Z,13.92
2023-04-11T17:02:40.481Z,13.85
2023-04-11T17:05:09.879Z,13.93
2023-04-11T17:07:38.057Z,13.83
2023-04-11T17:10:07.186Z,13.77
2023-04-11T17:12:38.258Z,13.70
2023-04-11T17:15:09.210Z,13.64
2023-04-11T17:17:38.219Z,13.55
2023-04-11T17:20:09.956Z,13.48
2023-04-11T17:22:39.706Z,13.32
2023-04-11T17:25:07.386Z,13.28
2023-04-11T17:27:34.997Z,13.32
2023-04-11T17:30:02.271Z,13.23
2023-04-11T17:32:29.468Z,13.25
2023-04-11T17:34:56.529Z,13.17
2023-04-11T17:37:24.119Z,13.02
2023-04-11T17:39:51.808Z,12.96
2023-04-11T17:42:19.986Z,12.84
2023-04-11T17:44:47.037Z,12.82
2023-04-11T17:47:13.999Z,12.74
2023-04-11T17:49:41.007Z,12.65
2023-04-11T17:52:08.991Z,12.68
2023-04-11T17:54:36.484Z,12.64
2023-04-11T17:57:03.825Z,12.44
2023-04-11T17:59:31.656Z,12.31
2023-04-11T18:01:59.517Z,12.30
2023-04-11T18:04:29.091Z,12.35
2023-04-11T18:06:58.158Z,12.35
2023-04-11T18:09:28.149Z,12.35
2023-04-11T18:11:55.186Z,12.32
2023-04-11T18:14:23.185Z,12.25
2023-04-11T18:16:50.902Z,12.26
2023-04-11T18:19:18.337Z,12.23
2023-04-11T18:21:45.773Z,12.18
2023-04-11T18:24:12.866Z,12.16
2023-04-11T18:26:40.243Z,12.04
2023-04-11T18:29:07.941Z,12.02
2023-04-11T18:31:35.678Z,11.96
2023-04-11T18:34:03.911Z,11.78
2023-04-11T18:36:33.323Z,11.83
2023-04-11T18:39:01.029Z,11.72
2023-04-11T18:41:28.039Z,11.61
2023-04-11T18:43:55.925Z,11.50
2023-04-11T18:46:23.374Z,11.49
2023-04-11T18:48:50.501Z,11.47
2023-04-11T18:51:17.882Z,11.50
2023-04-11T18:53:45.128Z,11.41
2023-04-11T18:56:12.097Z,11.34
2023-04-11T18:58:45.738Z,11.20
2023-04-11T19:01:17.003Z,11.16
2023-04-11T19:03:45.784Z,11.15
2023-04-11T19:06:13.652Z,11.18
2023-04-11T19:08:41.662Z,11.15
2023-04-11T19:11:08.704Z,11.12
2023-04-11T19:13:36.109Z,11.05
2023-04-11T19:16:04.049Z,10.99
2023-04-11T19:18:31.713Z,10.89
2023-04-11T19:20:59.299Z,10.81
2023-04-11T19:23:27.141Z,10.65
2023-04-11T19:25:55.108Z,10.50
2023-04-11T19:28:22.658Z,10.57
2023-04-11T19:30:50.582Z,10.47
2023-04-11T19:33:19.078Z,10.39
2023-04-11T19:35:46.554Z,10.31
2023-04-11T19:38:13.977Z,10.35
2023-04-11T19:40:41.375Z,10.38
2023-04-11T19:43:09.234Z,10.42
2023-04-11T19:45:36.819Z,10.46
2023-04-11T19:48:04.466Z,10.46
2023-04-11T19:50:32.122Z,10.43
2023-04-11T19:53:01.521Z,10.39
2023-04-11T19:55:29.292Z,10.31
2023-04-11T19:57:56.710Z,10.29
2023-04-11T20:00:25.419Z,10.28
2023-04-11T20:02:53.894Z,10.30
2023-04-11T20:05:22.225Z,10.32
2023-04-11T20:07:49.681Z,10.25
2023-04-11T20:10:17.744Z,10.31
2023-04-11T20:12:45.249Z,10.29
2023-04-11T20:15:12.665Z,10.35
2023-04-11T20:17:40.357Z,10.38
2023-04-11T20:20:09.030Z,10.36
2023-04-11T20:22:38.451Z,10.35
2023-04-11T20:25:08.072Z,10.26
2023-04-11T20:27:35.663Z,10.21
2023-04-11T20:30:10.642Z,10.25
2023-04-11T20:32:38.677Z,10.31
2023-04-11T20:35:08.716Z,10.23
2023-04-11T20:37:36.370Z,10.26
2023-04-11T20:40:09.948Z,10.24
2023-04-11T20:42:46.038Z,10.16
2023-04-11T20:45:20.677Z,10.10
2023-04-11T20:47:50.152Z,10.06
2023-04-11T20:50:19.231Z,10.04
2023-04-11T20:52:50.643Z,9.98
2023-04-11T20:55:18.291Z,9.92
2023-04-11T20:57:45.880Z,9.65
2023-04-11T21:00:20.416Z,9.73
2023-04-11T21:02:50.568Z,9.74
2023-04-11T21:05:22.173Z,9.83
2023-04-11T21:07:50.138Z,9.72
2023-04-11T21:10:19.314Z,9.87
2023-04-11T21:12:51.529Z,9.96
2023-04-11T21:15:20.084Z,10.00
2023-04-11T21:17:48.222Z,9.86
2023-04-11T21:20:19.566Z,9.78
2023-04-11T21:22:54.995Z,9.69
2023-04-11T21:25:23.109Z,9.68
2023-04-11T21:27:50.598Z,9.69
2023-04-11T21:30:18.023Z,9.67
2023-04-11T21:32:45.559Z,9.60
2023-04-11T21:35:13.035Z,9.55
2023-04-11T21:37:40.523Z,9.69
2023-04-11T21:40:08.407Z,9.61
2023-04-11T21:42:35.768Z,9.52
2023-04-11T21:45:03.327Z,9.44
2023-04-11T21:47:30.701Z,9.46
2023-04-11T21:49:58.069Z,9.51
2023-04-11T21:52:25.532Z,9.49
2023-04-11T21:54:52.874Z,9.57
2023-04-11T21:57:20.185Z,9.55
2023-04-11T21:59:47.611Z,9.58
2023-04-11T22:02:15.379Z,9.46
2023-04-11T22:05:01.170Z,9.43
2023-04-11T22:07:38.344Z,9.49
2023-04-11T22:10:09.765Z,9.49
2023-04-11T22:12:37.800Z,9.47
2023-04-11T22:15:06.901Z,9.35
2023-04-11T22:17:34.588Z,9.32
2023-04-11T22:20:01.967Z,9.25
2023-04-11T22:22:32.353Z,9.34
2023-04-11T22:25:00.390Z,9.22
2023-04-11T22:27:28.147Z,9.28
2023-04-11T22:29:59.920Z,9.22
2023-04-11T22:32:27.267Z,9.19
2023-04-11T22:34:54.651Z,9.22
2023-04-11T22:37:22.045Z,9.26
2023-04-11T22:39:49.954Z,9.16
2023-04-11T22:42:17.407Z,9.12
2023-04-11T22:44:44.812Z,9.07
2023-04-11T22:47:16.236Z,9.05
2023-04-11T22:49:45.146Z,9.05
2023-04-11T22:52:15.736Z,9.07
2023-04-11T22:54:43.448Z,9.08
2023-04-11T22:57:11.044Z,9.08
2023-04-11T22:59:38.417Z,9.04
2023-04-11T23:02:05.828Z,9.01
2023-04-11T23:04:33.309Z,8.96
2023-04-11T23:07:00.699Z,8.97
2023-04-11T23:09:28.458Z,8.82
2023-04-11T23:11:55.522Z,8.77
2023-04-11T23:14:22.960Z,8.76
2023-04-11T23:16:50.372Z,8.82
2023-04-11T23:19:18.976Z,8.82
2023-04-11T23:21:46.372Z,8.81
2023-04-11T23:24:14.112Z,8.79
2023-04-11T23:26:41.179Z,8.86
2023-04-11T23:29:08.659Z,8.88
2023-04-11T23:31:36.148Z,8.90
2023-04-11T23:34:03.545Z,8.95
2023-04-11T23:36:30.882Z,8.94
2023-04-11T23:38:58.292Z,8.93
2023-04-11T23:41:25.875Z,8.95
2023-04-11T23:43:53.203Z,8.96
2023-04-11T23:46:20.683Z,8.99
2023-04-11T23:48:48.078Z,8.94
2023-04-11T23:51:16.026Z,8.91
2023-04-11T23:53:43.877Z,8.89
2023-04-11T23:56:11.837Z,8.87
2023-04-11T23:58:39.178Z,8.87
